sensor_id;sensor_type;location;lat;lon;timestamp;temperature;humidity
39401;DHT22;54391;50.000;7.360;2022-10-31T00:00:48;13.10;31.30
39401;DHT22;54391;50.000;7.360;2022-10-31T00:03:16;13.00;31.80
39401;DHT22;54391;50.000;7.360;2022-10-31T00:05:46;13.00;30.70
39401;DHT22;54391;50.000;7.360;2022-10-31T00:08:13;13.00;32.10
39401;DHT22;54391;50.000;7.360;2022-10-31T00:10:41;13.20;30.90
39401;DHT22;54391;50.000;7.360;2022-10-31T00:13:11;13.10;31.10
39401;DHT22;54391;50.000;7.360;2022-10-31T00:15:40;13.30;30.20
39401;DHT22;54391;50.000;7.360;2022-10-31T00:18:09;13.30;30.00
39401;DHT22;54391;50.000;7.360;2022-10-31T00:20:36;13.30;29.90
39401;DHT22;54391;50.000;7.360;2022-10-31T00:23:05;13.30;29.80
39401;DHT22;54391;50.000;7.360;2022-10-31T00:25:34;13.30;30.30
39401;DHT22;54391;50.000;7.360;2022-10-31T00:28:03;13.20;30.90
39401;DHT22;54391;50.000;7.360;2022-10-31T00:30:32;13.20;30.20
39401;DHT22;54391;50.000;7.360;2022-10-31T00:32:59;13.20;30.80
39401;DHT22;54391;50.000;7.360;2022-10-31T00:35:28;13.30;31.60
39401;DHT22;54391;50.000;7.360;2022-10-31T00:42:51;13.30;30.40
39401;DHT22;54391;50.000;7.360;2022-10-31T00:45:18;13.40;29.90
39401;DHT22;54391;50.000;7.360;2022-10-31T00:50:15;13.30;29.50
39401;DHT22;54391;50.000;7.360;2022-10-31T00:52:42;13.30;30.00
39401;DHT22;54391;50.000;7.360;2022-10-31T00:57:37;13.30;30.50
39401;DHT22;54391;50.000;7.360;2022-10-31T01:00:06;13.30;31.60
39401;DHT22;54391;50.000;7.360;2022-10-31T01:02:33;13.30;30.60
39401;DHT22;54391;50.000;7.360;2022-10-31T01:05:02;13.40;30.30
39401;DHT22;54391;50.000;7.360;2022-10-31T01:07:30;13.50;31.20
39401;DHT22;54391;50.000;7.360;2022-10-31T01:09:57;13.20;31.60
39401;DHT22;54391;50.000;7.360;2022-10-31T01:12:25;13.30;31.10
39401;DHT22;54391;50.000;7.360;2022-10-31T01:14:52;13.20;32.00
39401;DHT22;54391;50.000;7.360;2022-10-31T01:17:19;13.30;32.70
39401;DHT22;54391;50.000;7.360;2022-10-31T01:19:47;13.20;31.60
39401;DHT22;54391;50.000;7.360;2022-10-31T01:22:15;13.30;31.50
39401;DHT22;54391;50.000;7.360;2022-10-31T01:27:10;13.20;31.60
39401;DHT22;54391;50.000;7.360;2022-10-31T01:29:38;13.30;31.70
39401;DHT22;54391;50.000;7.360;2022-10-31T01:32:05;13.30;32.10
39401;DHT22;54391;50.000;7.360;2022-10-31T01:34:33;13.20;33.30
39401;DHT22;54391;50.000;7.360;2022-10-31T01:37:01;13.10;34.30
39401;DHT22;54391;50.000;7.360;2022-10-31T01:39:30;13.10;34.60
39401;DHT22;54391;50.000;7.360;2022-10-31T01:41:57;13.10;33.50
39401;DHT22;54391;50.000;7.360;2022-10-31T01:44:54;13.20;34.10
39401;DHT22;54391;50.000;7.360;2022-10-31T01:47:24;13.20;33.40
39401;DHT22;54391;50.000;7.360;2022-10-31T01:49:57;13.20;33.60
39401;DHT22;54391;50.000;7.360;2022-10-31T01:52:30;13.00;34.30
39401;DHT22;54391;50.000;7.360;2022-10-31T01:55:04;13.00;34.80
39401;DHT22;54391;50.000;7.360;2022-10-31T01:57:33;13.10;34.40
39401;DHT22;54391;50.000;7.360;2022-10-31T02:00:06;13.20;34.00
39401;DHT22;54391;50.000;7.360;2022-10-31T02:02:39;13.20;32.40
39401;DHT22;54391;50.000;7.360;2022-10-31T02:05:09;13.30;32.80
39401;DHT22;54391;50.000;7.360;2022-10-31T02:07:42;13.40;32.10
39401;DHT22;54391;50.000;7.360;2022-10-31T02:10:11;13.40;32.00
39401;DHT22;54391;50.000;7.360;2022-10-31T02:12:39;13.40;30.90
39401;DHT22;54391;50.000;7.360;2022-10-31T02:15:09;13.50;32.10
39401;DHT22;54391;50.000;7.360;2022-10-31T02:17:36;13.20;32.90
39401;DHT22;54391;50.000;7.360;2022-10-31T02:20:12;13.30;33.00
39401;DHT22;54391;50.000;7.360;2022-10-31T02:22:51;13.30;31.80
39401;DHT22;54391;50.000;7.360;2022-10-31T02:25:42;13.40;31.10
39401;DHT22;54391;50.000;7.360;2022-10-31T02:28:28;13.40;30.80
39401;DHT22;54391;50.000;7.360;2022-10-31T02:31:11;13.40;30.30
39401;DHT22;54391;50.000;7.360;2022-10-31T02:33:44;13.40;30.20
39401;DHT22;54391;50.000;7.360;2022-10-31T02:36:18;13.40;30.60
39401;DHT22;54391;50.000;7.360;2022-10-31T02:38:53;13.40;31.00
39401;DHT22;54391;50.000;7.360;2022-10-31T02:41:46;13.40;29.60
39401;DHT22;54391;50.000;7.360;2022-10-31T02:44:19;13.50;30.50
39401;DHT22;54391;50.000;7.360;2022-10-31T02:46:52;13.50;30.10
39401;DHT22;54391;50.000;7.360;2022-10-31T02:49:24;13.50;30.30
39401;DHT22;54391;50.000;7.360;2022-10-31T02:51:54;13.30;30.80
39401;DHT22;54391;50.000;7.360;2022-10-31T02:54:23;13.20;32.20
39401;DHT22;54391;50.000;7.360;2022-10-31T02:56:57;13.00;32.90
39401;DHT22;54391;50.000;7.360;2022-10-31T02:59:28;13.10;33.30
39401;DHT22;54391;50.000;7.360;2022-10-31T03:02:17;13.00;32.90
39401;DHT22;54391;50.000;7.360;2022-10-31T03:05:00;13.00;33.30
39401;DHT22;54391;50.000;7.360;2022-10-31T03:07:42;13.10;33.80
39401;DHT22;54391;50.000;7.360;2022-10-31T03:10:18;13.10;33.60
39401;DHT22;54391;50.000;7.360;2022-10-31T03:12:53;15.70;34.00
39401;DHT22;54391;50.000;7.360;2022-10-31T03:15:24;13.20;32.20
39401;DHT22;54391;50.000;7.360;2022-10-31T03:17:59;13.30;32.20
39401;DHT22;54391;50.000;7.360;2022-10-31T03:20:33;13.30;32.50
39401;DHT22;54391;50.000;7.360;2022-10-31T03:23:04;13.30;32.40
39401;DHT22;54391;50.000;7.360;2022-10-31T03:25:35;13.40;32.80
39401;DHT22;54391;50.000;7.360;2022-10-31T03:28:05;13.40;32.40
39401;DHT22;54391;50.000;7.360;2022-10-31T03:30:35;13.40;31.60
39401;DHT22;54391;50.000;7.360;2022-10-31T03:33:09;13.30;32.30
39401;DHT22;54391;50.000;7.360;2022-10-31T03:35:41;13.30;31.80
39401;DHT22;54391;50.000;7.360;2022-10-31T03:38:10;13.30;31.80
39401;DHT22;54391;50.000;7.360;2022-10-31T03:40:40;13.20;33.80
39401;DHT22;54391;50.000;7.360;2022-10-31T03:43:13;13.20;34.10
39401;DHT22;54391;50.000;7.360;2022-10-31T03:45:45;13.20;34.50
39401;DHT22;54391;50.000;7.360;2022-10-31T03:48:15;13.20;34.70
39401;DHT22;54391;50.000;7.360;2022-10-31T03:50:49;13.20;34.80
39401;DHT22;54391;50.000;7.360;2022-10-31T03:53:22;13.20;35.20
39401;DHT22;54391;50.000;7.360;2022-10-31T03:55:54;13.10;36.00
39401;DHT22;54391;50.000;7.360;2022-10-31T03:58:26;13.00;36.30
39401;DHT22;54391;50.000;7.360;2022-10-31T04:00:55;13.00;36.20
39401;DHT22;54391;50.000;7.360;2022-10-31T04:03:28;13.00;36.50
39401;DHT22;54391;50.000;7.360;2022-10-31T04:06:02;13.00;36.70
39401;DHT22;54391;50.000;7.360;2022-10-31T04:08:33;12.80;37.70
39401;DHT22;54391;50.000;7.360;2022-10-31T04:11:05;12.70;39.10
39401;DHT22;54391;50.000;7.360;2022-10-31T04:13:40;12.60;39.50
39401;DHT22;54391;50.000;7.360;2022-10-31T04:16:14;12.60;40.40
39401;DHT22;54391;50.000;7.360;2022-10-31T04:23:39;12.50;42.10
39401;DHT22;54391;50.000;7.360;2022-10-31T04:26:24;12.50;43.00
39401;DHT22;54391;50.000;7.360;2022-10-31T04:28:52;12.50;43.00
39401;DHT22;54391;50.000;7.360;2022-10-31T04:31:19;12.40;42.80
39401;DHT22;54391;50.000;7.360;2022-10-31T04:33:50;12.50;43.40
39401;DHT22;54391;50.000;7.360;2022-10-31T04:36:17;12.50;42.40
39401;DHT22;54391;50.000;7.360;2022-10-31T04:38:45;12.50;43.20
39401;DHT22;54391;50.000;7.360;2022-10-31T04:41:29;12.50;42.60
39401;DHT22;54391;50.000;7.360;2022-10-31T04:44:07;12.40;42.70
39401;DHT22;54391;50.000;7.360;2022-10-31T04:51:32;12.40;43.30
39401;DHT22;54391;50.000;7.360;2022-10-31T04:56:28;12.30;44.30
39401;DHT22;54391;50.000;7.360;2022-10-31T04:59:01;12.30;45.00
39401;DHT22;54391;50.000;7.360;2022-10-31T05:01:38;12.30;44.00
39401;DHT22;54391;50.000;7.360;2022-10-31T05:06:35;12.30;44.50
39401;DHT22;54391;50.000;7.360;2022-10-31T05:09:03;12.20;44.60
39401;DHT22;54391;50.000;7.360;2022-10-31T05:14:08;12.10;45.50
39401;DHT22;54391;50.000;7.360;2022-10-31T05:16:58;12.10;46.30
39401;DHT22;54391;50.000;7.360;2022-10-31T05:20:04;12.00;46.00
39401;DHT22;54391;50.000;7.360;2022-10-31T05:23:07;12.00;46.00
39401;DHT22;54391;50.000;7.360;2022-10-31T05:25:35;12.00;46.10
39401;DHT22;54391;50.000;7.360;2022-10-31T05:28:04;12.00;44.70
39401;DHT22;54391;50.000;7.360;2022-10-31T05:30:43;11.80;45.80
39401;DHT22;54391;50.000;7.360;2022-10-31T05:33:14;11.80;46.50
39401;DHT22;54391;50.000;7.360;2022-10-31T05:35:55;11.60;49.00
39401;DHT22;54391;50.000;7.360;2022-10-31T05:38:22;11.50;49.10
39401;DHT22;54391;50.000;7.360;2022-10-31T05:40:49;11.40;50.00
39401;DHT22;54391;50.000;7.360;2022-10-31T05:43:17;11.30;50.30
39401;DHT22;54391;50.000;7.360;2022-10-31T05:45:44;12.20;51.70
39401;DHT22;54391;50.000;7.360;2022-10-31T05:48:29;11.10;52.60
39401;DHT22;54391;50.000;7.360;2022-10-31T05:53:51;11.00;55.10
39401;DHT22;54391;50.000;7.360;2022-10-31T05:58:47;11.10;56.60
39401;DHT22;54391;50.000;7.360;2022-10-31T06:01:14;11.20;55.40
39401;DHT22;54391;50.000;7.360;2022-10-31T06:03:45;11.30;55.10
39401;DHT22;54391;50.000;7.360;2022-10-31T06:06:15;11.20;55.00
39401;DHT22;54391;50.000;7.360;2022-10-31T06:11:18;11.30;54.90
39401;DHT22;54391;50.000;7.360;2022-10-31T06:14:01;11.50;54.50
39401;DHT22;54391;50.000;7.360;2022-10-31T06:16:39;11.50;53.90
39401;DHT22;54391;50.000;7.360;2022-10-31T06:19:32;11.60;52.40
39401;DHT22;54391;50.000;7.360;2022-10-31T06:21:59;11.60;51.70
39401;DHT22;54391;50.000;7.360;2022-10-31T06:27:04;11.60;52.10
39401;DHT22;54391;50.000;7.360;2022-10-31T06:34:38;11.50;52.90
39401;DHT22;54391;50.000;7.360;2022-10-31T06:37:07;11.60;52.90
39401;DHT22;54391;50.000;7.360;2022-10-31T06:39:36;11.70;52.50
39401;DHT22;54391;50.000;7.360;2022-10-31T06:42:04;11.70;51.90
39401;DHT22;54391;50.000;7.360;2022-10-31T06:44:33;11.70;51.50
39401;DHT22;54391;50.000;7.360;2022-10-31T06:47:18;11.80;50.70
39401;DHT22;54391;50.000;7.360;2022-10-31T06:50:07;11.90;50.00
39401;DHT22;54391;50.000;7.360;2022-10-31T07:07:38;12.30;46.80
39401;DHT22;54391;50.000;7.360;2022-10-31T07:10:08;12.40;46.30
39401;DHT22;54391;50.000;7.360;2022-10-31T07:12:54;12.50;45.20
39401;DHT22;54391;50.000;7.360;2022-10-31T07:22:50;12.20;47.30
39401;DHT22;54391;50.000;7.360;2022-10-31T07:30:38;12.80;43.20
39401;DHT22;54391;50.000;7.360;2022-10-31T07:33:08;12.90;42.50
39401;DHT22;54391;50.000;7.360;2022-10-31T07:35:59;13.00;41.50
39401;DHT22;54391;50.000;7.360;2022-10-31T07:38:30;13.00;41.90
39401;DHT22;54391;50.000;7.360;2022-10-31T07:41:01;13.10;39.80
39401;DHT22;54391;50.000;7.360;2022-10-31T07:46:21;13.20;39.40
39401;DHT22;54391;50.000;7.360;2022-10-31T07:49:07;13.20;38.60
39401;DHT22;54391;50.000;7.360;2022-10-31T07:51:53;13.40;37.30
39401;DHT22;54391;50.000;7.360;2022-10-31T07:54:40;13.40;37.60
39401;DHT22;54391;50.000;7.360;2022-10-31T08:02:07;14.00;32.30
39401;DHT22;54391;50.000;7.360;2022-10-31T08:07:45;14.10;32.10
39401;DHT22;54391;50.000;7.360;2022-10-31T08:10:19;14.20;32.40
39401;DHT22;54391;50.000;7.360;2022-10-31T08:12:55;14.10;30.70
39401;DHT22;54391;50.000;7.360;2022-10-31T08:15:22;14.10;30.80
39401;DHT22;54391;50.000;7.360;2022-10-31T08:17:51;14.10;32.00
39401;DHT22;54391;50.000;7.360;2022-10-31T08:33:05;14.10;29.50
39401;DHT22;54391;50.000;7.360;2022-10-31T08:35:58;14.20;30.30
39401;DHT22;54391;50.000;7.360;2022-10-31T08:51:12;14.70;28.30
39401;DHT22;54391;50.000;7.360;2022-10-31T08:58:52;14.50;28.90
39401;DHT22;54391;50.000;7.360;2022-10-31T09:34:27;14.20;35.40
39401;DHT22;54391;50.000;7.360;2022-10-31T09:37:10;14.40;34.20
39401;DHT22;54391;50.000;7.360;2022-10-31T09:39:37;14.40;33.90
39401;DHT22;54391;50.000;7.360;2022-10-31T09:45:23;14.80;26.60
39401;DHT22;54391;50.000;7.360;2022-10-31T09:48:06;14.80;27.10
39401;DHT22;54391;50.000;7.360;2022-10-31T09:50:40;14.60;28.30
39401;DHT22;54391;50.000;7.360;2022-10-31T09:53:47;14.80;28.60
39401;DHT22;54391;50.000;7.360;2022-10-31T09:56:21;14.90;28.40
39401;DHT22;54391;50.000;7.360;2022-10-31T09:58:53;15.10;27.90
39401;DHT22;54391;50.000;7.360;2022-10-31T10:01:40;14.90;27.20
39401;DHT22;54391;50.000;7.360;2022-10-31T10:04:22;15.10;27.30
39401;DHT22;54391;50.000;7.360;2022-10-31T10:07:05;15.10;27.50
39401;DHT22;54391;50.000;7.360;2022-10-31T10:10:00;15.10;27.50
39401;DHT22;54391;50.000;7.360;2022-10-31T10:13:05;15.30;26.80
39401;DHT22;54391;50.000;7.360;2022-10-31T10:18:17;15.40;25.90
39401;DHT22;54391;50.000;7.360;2022-10-31T10:20:58;15.50;25.00
39401;DHT22;54391;50.000;7.360;2022-10-31T10:23:46;15.40;24.30
39401;DHT22;54391;50.000;7.360;2022-10-31T10:26:19;15.60;22.40
39401;DHT22;54391;50.000;7.360;2022-10-31T10:28:49;17.90;23.40
39401;DHT22;54391;50.000;7.360;2022-10-31T10:31:22;15.90;22.30
39401;DHT22;54391;50.000;7.360;2022-10-31T10:34:01;15.80;21.60
39401;DHT22;54391;50.000;7.360;2022-10-31T10:36:39;15.70;22.80
39401;DHT22;54391;50.000;7.360;2022-10-31T10:39:14;15.50;23.60
39401;DHT22;54391;50.000;7.360;2022-10-31T10:41:46;15.50;23.90
39401;DHT22;54391;50.000;7.360;2022-10-31T10:50:01;15.40;23.80
39401;DHT22;54391;50.000;7.360;2022-10-31T10:52:36;15.30;23.10
39401;DHT22;54391;50.000;7.360;2022-10-31T10:55:09;15.30;25.10
39401;DHT22;54391;50.000;7.360;2022-10-31T11:00:23;15.10;26.00
39401;DHT22;54391;50.000;7.360;2022-10-31T11:05:24;15.10;27.70
39401;DHT22;54391;50.000;7.360;2022-10-31T11:13:06;15.10;28.10
39401;DHT22;54391;50.000;7.360;2022-10-31T11:15:51;15.10;28.00
39401;DHT22;54391;50.000;7.360;2022-10-31T11:18:21;15.20;29.70
39401;DHT22;54391;50.000;7.360;2022-10-31T11:20:53;15.30;29.00
39401;DHT22;54391;50.000;7.360;2022-10-31T11:25:54;15.00;31.20
39401;DHT22;54391;50.000;7.360;2022-10-31T11:30:51;15.00;31.30
39401;DHT22;54391;50.000;7.360;2022-10-31T11:33:26;15.00;30.90
39401;DHT22;54391;50.000;7.360;2022-10-31T11:38:26;15.00;29.40
39401;DHT22;54391;50.000;7.360;2022-10-31T11:40:58;15.00;31.30
39401;DHT22;54391;50.000;7.360;2022-10-31T11:45:56;15.00;33.40
39401;DHT22;54391;50.000;7.360;2022-10-31T11:48:24;15.00;32.60
39401;DHT22;54391;50.000;7.360;2022-10-31T11:50:56;14.90;34.50
39401;DHT22;54391;50.000;7.360;2022-10-31T11:53:27;14.90;35.20
39401;DHT22;54391;50.000;7.360;2022-10-31T11:56:04;14.90;35.30
39401;DHT22;54391;50.000;7.360;2022-10-31T12:03:42;15.10;35.40
39401;DHT22;54391;50.000;7.360;2022-10-31T12:06:14;15.30;33.80
39401;DHT22;54391;50.000;7.360;2022-10-31T12:11:26;15.30;31.80
39401;DHT22;54391;50.000;7.360;2022-10-31T12:14:06;15.40;32.20
39401;DHT22;54391;50.000;7.360;2022-10-31T12:16:41;15.50;31.30
39401;DHT22;54391;50.000;7.360;2022-10-31T12:22:11;15.50;29.50
39401;DHT22;54391;50.000;7.360;2022-10-31T12:24:58;15.60;29.30
39401;DHT22;54391;50.000;7.360;2022-10-31T12:27:40;15.60;29.90
39401;DHT22;54391;50.000;7.360;2022-10-31T12:30:16;15.50;29.60
39401;DHT22;54391;50.000;7.360;2022-10-31T12:33:16;15.60;29.80
39401;DHT22;54391;50.000;7.360;2022-10-31T12:35:55;15.60;30.40
39401;DHT22;54391;50.000;7.360;2022-10-31T12:38:37;15.60;30.80
39401;DHT22;54391;50.000;7.360;2022-10-31T12:41:19;15.60;31.20
39401;DHT22;54391;50.000;7.360;2022-10-31T12:43:53;15.60;32.40
39401;DHT22;54391;50.000;7.360;2022-10-31T12:46:32;15.60;31.80
39401;DHT22;54391;50.000;7.360;2022-10-31T12:49:19;15.60;32.70
39401;DHT22;54391;50.000;7.360;2022-10-31T12:51:56;15.60;30.00
39401;DHT22;54391;50.000;7.360;2022-10-31T12:54:39;15.60;29.40
39401;DHT22;54391;50.000;7.360;2022-10-31T12:57:20;15.80;28.50
39401;DHT22;54391;50.000;7.360;2022-10-31T12:59:52;15.70;27.50
39401;DHT22;54391;50.000;7.360;2022-10-31T13:02:24;15.80;29.10
39401;DHT22;54391;50.000;7.360;2022-10-31T13:04:56;15.70;28.60
39401;DHT22;54391;50.000;7.360;2022-10-31T13:07:29;15.70;30.00
39401;DHT22;54391;50.000;7.360;2022-10-31T13:10:02;15.70;29.90
39401;DHT22;54391;50.000;7.360;2022-10-31T13:12:34;15.70;29.70
39401;DHT22;54391;50.000;7.360;2022-10-31T13:15:05;15.70;29.80
39401;DHT22;54391;50.000;7.360;2022-10-31T13:17:41;15.70;29.60
39401;DHT22;54391;50.000;7.360;2022-10-31T13:20:18;17.80;30.70
39401;DHT22;54391;50.000;7.360;2022-10-31T13:22:48;15.60;28.80
39401;DHT22;54391;50.000;7.360;2022-10-31T13:25:21;15.70;29.70
39401;DHT22;54391;50.000;7.360;2022-10-31T13:27:54;15.60;30.00
39401;DHT22;54391;50.000;7.360;2022-10-31T13:30:23;17.00;31.20
39401;DHT22;54391;50.000;7.360;2022-10-31T13:32:54;15.60;27.90
39401;DHT22;54391;50.000;7.360;2022-10-31T13:35:28;15.80;28.00
39401;DHT22;54391;50.000;7.360;2022-10-31T13:38:17;15.80;27.50
39401;DHT22;54391;50.000;7.360;2022-10-31T13:40:52;15.60;26.90
39401;DHT22;54391;50.000;7.360;2022-10-31T13:43:28;15.60;27.60
39401;DHT22;54391;50.000;7.360;2022-10-31T13:45:56;15.60;26.90
39401;DHT22;54391;50.000;7.360;2022-10-31T13:48:38;16.00;26.80
39401;DHT22;54391;50.000;7.360;2022-10-31T13:51:09;15.60;27.70
39401;DHT22;54391;50.000;7.360;2022-10-31T13:53:42;15.50;28.90
39401;DHT22;54391;50.000;7.360;2022-10-31T13:56:16;15.50;29.40
39401;DHT22;54391;50.000;7.360;2022-10-31T13:58:57;15.40;31.80
39401;DHT22;54391;50.000;7.360;2022-10-31T14:01:25;15.40;30.40
39401;DHT22;54391;50.000;7.360;2022-10-31T14:04:01;15.40;30.50
39401;DHT22;54391;50.000;7.360;2022-10-31T14:06:42;15.40;30.00
39401;DHT22;54391;50.000;7.360;2022-10-31T14:09:24;15.30;28.40
39401;DHT22;54391;50.000;7.360;2022-10-31T14:11:55;15.40;27.60
39401;DHT22;54391;50.000;7.360;2022-10-31T14:14:28;15.40;28.00
39401;DHT22;54391;50.000;7.360;2022-10-31T14:16:57;15.40;28.50
39401;DHT22;54391;50.000;7.360;2022-10-31T14:19:26;15.50;27.80
39401;DHT22;54391;50.000;7.360;2022-10-31T14:24:35;15.70;28.20
39401;DHT22;54391;50.000;7.360;2022-10-31T14:27:45;15.60;29.30
39401;DHT22;54391;50.000;7.360;2022-10-31T14:30:16;15.60;28.40
39401;DHT22;54391;50.000;7.360;2022-10-31T14:32:50;15.50;28.90
39401;DHT22;54391;50.000;7.360;2022-10-31T14:35:20;15.40;30.20
39401;DHT22;54391;50.000;7.360;2022-10-31T14:38:15;15.40;32.00
39401;DHT22;54391;50.000;7.360;2022-10-31T14:41:08;15.30;33.10
39401;DHT22;54391;50.000;7.360;2022-10-31T14:43:53;15.20;33.50
39401;DHT22;54391;50.000;7.360;2022-10-31T14:46:28;15.20;33.90
39401;DHT22;54391;50.000;7.360;2022-10-31T14:49:12;15.20;31.90
39401;DHT22;54391;50.000;7.360;2022-10-31T14:51:45;15.10;32.10
39401;DHT22;54391;50.000;7.360;2022-10-31T14:54:15;15.10;32.10
39401;DHT22;54391;50.000;7.360;2022-10-31T14:56:48;15.20;33.00
39401;DHT22;54391;50.000;7.360;2022-10-31T14:59:21;15.10;33.40
39401;DHT22;54391;50.000;7.360;2022-10-31T15:01:56;15.10;33.50
39401;DHT22;54391;50.000;7.360;2022-10-31T15:04:26;14.90;35.30
39401;DHT22;54391;50.000;7.360;2022-10-31T15:06:59;14.90;36.00
39401;DHT22;54391;50.000;7.360;2022-10-31T15:09:29;14.90;36.60
39401;DHT22;54391;50.000;7.360;2022-10-31T15:11:58;14.90;34.40
39401;DHT22;54391;50.000;7.360;2022-10-31T15:14:30;15.00;35.90
39401;DHT22;54391;50.000;7.360;2022-10-31T15:16:59;14.90;36.70
39401;DHT22;54391;50.000;7.360;2022-10-31T15:19:30;14.90;38.40
39401;DHT22;54391;50.000;7.360;2022-10-31T15:22:00;14.80;37.70
39401;DHT22;54391;50.000;7.360;2022-10-31T15:24:34;14.80;38.10
39401;DHT22;54391;50.000;7.360;2022-10-31T15:27:02;14.90;37.70
39401;DHT22;54391;50.000;7.360;2022-10-31T15:29:31;14.90;38.40
39401;DHT22;54391;50.000;7.360;2022-10-31T15:32:01;15.00;37.70
39401;DHT22;54391;50.000;7.360;2022-10-31T15:34:34;14.90;38.90
39401;DHT22;54391;50.000;7.360;2022-10-31T15:37:04;14.90;39.60
39401;DHT22;54391;50.000;7.360;2022-10-31T15:39:31;14.90;39.20
39401;DHT22;54391;50.000;7.360;2022-10-31T15:44:33;14.90;38.10
39401;DHT22;54391;50.000;7.360;2022-10-31T15:47:03;14.80;38.20
39401;DHT22;54391;50.000;7.360;2022-10-31T15:49:34;14.80;38.90
39401;DHT22;54391;50.000;7.360;2022-10-31T15:52:14;14.80;39.10
39401;DHT22;54391;50.000;7.360;2022-10-31T15:54:47;14.70;39.70
39401;DHT22;54391;50.000;7.360;2022-10-31T15:57:15;14.70;39.80
39401;DHT22;54391;50.000;7.360;2022-10-31T15:59:48;14.60;40.20
39401;DHT22;54391;50.000;7.360;2022-10-31T16:02:19;14.70;39.40
39401;DHT22;54391;50.000;7.360;2022-10-31T16:04:53;14.60;40.40
39401;DHT22;54391;50.000;7.360;2022-10-31T16:09:53;14.50;43.00
39401;DHT22;54391;50.000;7.360;2022-10-31T16:12:23;14.50;43.40
39401;DHT22;54391;50.000;7.360;2022-10-31T16:14:53;14.50;43.30
39401;DHT22;54391;50.000;7.360;2022-10-31T16:17:24;14.50;43.50
39401;DHT22;54391;50.000;7.360;2022-10-31T16:19:55;14.50;43.70
39401;DHT22;54391;50.000;7.360;2022-10-31T16:22:26;14.40;45.10
39401;DHT22;54391;50.000;7.360;2022-10-31T16:24:58;14.40;45.20
39401;DHT22;54391;50.000;7.360;2022-10-31T16:27:30;14.30;46.60
39401;DHT22;54391;50.000;7.360;2022-10-31T16:30:00;14.20;47.50
39401;DHT22;54391;50.000;7.360;2022-10-31T16:32:32;14.00;48.90
39401;DHT22;54391;50.000;7.360;2022-10-31T16:37:43;13.90;51.00
39401;DHT22;54391;50.000;7.360;2022-10-31T16:40:11;13.90;51.50
39401;DHT22;54391;50.000;7.360;2022-10-31T16:42:52;13.80;51.30
39401;DHT22;54391;50.000;7.360;2022-10-31T16:45:22;13.70;52.80
39401;DHT22;54391;50.000;7.360;2022-10-31T16:47:51;13.60;55.10
39401;DHT22;54391;50.000;7.360;2022-10-31T16:50:21;13.50;56.80
39401;DHT22;54391;50.000;7.360;2022-10-31T16:52:49;13.50;56.80
39401;DHT22;54391;50.000;7.360;2022-10-31T16:55:17;13.40;58.90
39401;DHT22;54391;50.000;7.360;2022-10-31T16:57:48;13.50;58.90
39401;DHT22;54391;50.000;7.360;2022-10-31T17:00:18;13.60;57.60
39401;DHT22;54391;50.000;7.360;2022-10-31T17:02:48;13.60;57.40
39401;DHT22;54391;50.000;7.360;2022-10-31T17:05:17;13.60;56.80
39401;DHT22;54391;50.000;7.360;2022-10-31T17:07:45;13.50;56.80
39401;DHT22;54391;50.000;7.360;2022-10-31T17:10:14;13.30;60.40
39401;DHT22;54391;50.000;7.360;2022-10-31T17:12:44;13.20;62.20
39401;DHT22;54391;50.000;7.360;2022-10-31T17:15:16;13.20;63.20
39401;DHT22;54391;50.000;7.360;2022-10-31T17:17:46;13.10;65.40
39401;DHT22;54391;50.000;7.360;2022-10-31T17:20:20;13.20;65.60
39401;DHT22;54391;50.000;7.360;2022-10-31T17:25:17;13.30;64.20
39401;DHT22;54391;50.000;7.360;2022-10-31T17:30:32;12.80;69.10
39401;DHT22;54391;50.000;7.360;2022-10-31T17:35:30;12.70;72.60
39401;DHT22;54391;50.000;7.360;2022-10-31T17:37:57;12.70;76.00
39401;DHT22;54391;50.000;7.360;2022-10-31T17:42:54;12.60;76.70
39401;DHT22;54391;50.000;7.360;2022-10-31T17:45:24;12.60;75.70
39401;DHT22;54391;50.000;7.360;2022-10-31T17:47:53;12.60;76.90
39401;DHT22;54391;50.000;7.360;2022-10-31T17:50:23;12.50;78.10
39401;DHT22;54391;50.000;7.360;2022-10-31T17:55:19;12.40;78.00
39401;DHT22;54391;50.000;7.360;2022-10-31T18:00:16;12.30;79.20
39401;DHT22;54391;50.000;7.360;2022-10-31T18:22:28;12.60;78.30
39401;DHT22;54391;50.000;7.360;2022-10-31T18:29:52;12.50;79.00
39401;DHT22;54391;50.000;7.360;2022-10-31T18:32:20;12.50;79.50
39401;DHT22;54391;50.000;7.360;2022-10-31T18:39:43;12.60;80.00
39401;DHT22;54391;50.000;7.360;2022-10-31T18:44:40;12.60;79.60
39401;DHT22;54391;50.000;7.360;2022-10-31T18:47:07;12.50;79.30
39401;DHT22;54391;50.000;7.360;2022-10-31T18:49:34;12.50;80.40
39401;DHT22;54391;50.000;7.360;2022-10-31T18:52:02;12.60;81.30
39401;DHT22;54391;50.000;7.360;2022-10-31T18:54:29;12.60;80.80
39401;DHT22;54391;50.000;7.360;2022-10-31T19:01:53;12.50;81.90
39401;DHT22;54391;50.000;7.360;2022-10-31T19:04:21;12.40;82.10
39401;DHT22;54391;50.000;7.360;2022-10-31T19:06:48;12.40;83.10
39401;DHT22;54391;50.000;7.360;2022-10-31T19:09:15;12.30;84.50
39401;DHT22;54391;50.000;7.360;2022-10-31T19:11:43;12.30;85.00
39401;DHT22;54391;50.000;7.360;2022-10-31T19:14:11;12.20;85.20
39401;DHT22;54391;50.000;7.360;2022-10-31T19:24:04;12.20;88.90
39401;DHT22;54391;50.000;7.360;2022-10-31T19:26:32;12.10;89.30
39401;DHT22;54391;50.000;7.360;2022-10-31T19:31:29;12.10;89.30
39401;DHT22;54391;50.000;7.360;2022-10-31T19:33:58;12.10;89.30
39401;DHT22;54391;50.000;7.360;2022-10-31T19:41:23;12.30;88.30
39401;DHT22;54391;50.000;7.360;2022-10-31T19:43:51;12.30;87.90
39401;DHT22;54391;50.000;7.360;2022-10-31T19:46:20;12.30;88.10
39401;DHT22;54391;50.000;7.360;2022-10-31T19:51:19;12.40;86.60
39401;DHT22;54391;50.000;7.360;2022-10-31T19:53:47;12.30;86.60
39401;DHT22;54391;50.000;7.360;2022-10-31T19:56:16;12.40;86.70
39401;DHT22;54391;50.000;7.360;2022-10-31T19:58:44;12.30;87.70
39401;DHT22;54391;50.000;7.360;2022-10-31T20:01:13;12.30;87.80
39401;DHT22;54391;50.000;7.360;2022-10-31T20:03:42;12.30;88.30
39401;DHT22;54391;50.000;7.360;2022-10-31T20:06:20;12.30;88.30
39401;DHT22;54391;50.000;7.360;2022-10-31T20:08:49;12.30;88.10
39401;DHT22;54391;50.000;7.360;2022-10-31T20:11:17;12.30;88.30
39401;DHT22;54391;50.000;7.360;2022-10-31T20:16:14;12.40;86.90
39401;DHT22;54391;50.000;7.360;2022-10-31T20:18:43;12.50;86.10
39401;DHT22;54391;50.000;7.360;2022-10-31T20:21:14;12.60;85.40
39401;DHT22;54391;50.000;7.360;2022-10-31T20:23:42;12.50;85.40
39401;DHT22;54391;50.000;7.360;2022-10-31T20:26:15;12.50;84.90
39401;DHT22;54391;50.000;7.360;2022-10-31T20:31:13;12.60;84.50
39401;DHT22;54391;50.000;7.360;2022-10-31T20:36:08;12.60;83.10
39401;DHT22;54391;50.000;7.360;2022-10-31T20:41:06;12.60;84.20
39401;DHT22;54391;50.000;7.360;2022-10-31T20:46:04;12.40;83.60
39401;DHT22;54391;50.000;7.360;2022-10-31T20:51:01;12.40;85.20